sensor_id;sensor_type;location;lat;lon;timestamp;temperature;humidity
41310;DHT22;27057;51.438;-0.010;2022-11-13T00:02:38;12.90;99.90
41310;DHT22;27057;51.438;-0.010;2022-11-13T00:05:24;12.90;99.90
41310;DHT22;27057;51.438;-0.010;2022-11-13T00:08:10;12.90;99.90
41310;DHT22;27057;51.438;-0.010;2022-11-13T00:11:04;12.90;99.90
41310;DHT22;27057;51.438;-0.010;2022-11-13T00:13:50;13.10;99.90
41310;DHT22;27057;51.438;-0.010;2022-11-13T00:16:36;12.90;99.90
41310;DHT22;27057;51.438;-0.010;2022-11-13T00:19:22;12.90;99.90
41310;DHT22;27057;51.438;-0.010;2022-11-13T00:22:08;12.90;99.90
41310;DHT22;27057;51.438;-0.010;2022-11-13T00:24:54;13.60;99.90
41310;DHT22;27057;51.438;-0.010;2022-11-13T00:27:40;13.00;99.90
41310;DHT22;27057;51.438;-0.010;2022-11-13T00:30:26;12.90;99.90
41310;DHT22;27057;51.438;-0.010;2022-11-13T00:33:12;12.90;99.90
41310;DHT22;27057;51.438;-0.010;2022-11-13T00:36:17;13.00;99.90
41310;DHT22;27057;51.438;-0.010;2022-11-13T00:39:03;13.10;99.90
41310;DHT22;27057;51.438;-0.010;2022-11-13T00:41:49;13.50;99.90
41310;DHT22;27057;51.438;-0.010;2022-11-13T00:44:35;13.00;99.90
41310;DHT22;27057;51.438;-0.010;2022-11-13T00:47:20;13.00;99.90
41310;DHT22;27057;51.438;-0.010;2022-11-13T00:50:07;13.00;99.90
41310;DHT22;27057;51.438;-0.010;2022-11-13T00:52:52;13.10;99.90
41310;DHT22;27057;51.438;-0.010;2022-11-13T00:55:38;13.20;99.90
41310;DHT22;27057;51.438;-0.010;2022-11-13T00:58:25;13.20;99.90
41310;DHT22;27057;51.438;-0.010;2022-11-13T01:01:15;13.20;99.90
41310;DHT22;27057;51.438;-0.010;2022-11-13T01:04:01;13.40;99.90
41310;DHT22;27057;51.438;-0.010;2022-11-13T01:06:47;12.90;99.90
41310;DHT22;27057;51.438;-0.010;2022-11-13T01:09:33;13.00;99.90
41310;DHT22;27057;51.438;-0.010;2022-11-13T01:12:19;13.10;99.90
41310;DHT22;27057;51.438;-0.010;2022-11-13T01:15:06;13.20;99.90
41310;DHT22;27057;51.438;-0.010;2022-11-13T01:17:52;13.20;99.90
41310;DHT22;27057;51.438;-0.010;2022-11-13T01:20:39;13.20;99.90
41310;DHT22;27057;51.438;-0.010;2022-11-13T01:23:25;13.20;99.90
41310;DHT22;27057;51.438;-0.010;2022-11-13T01:26:25;13.30;99.90
41310;DHT22;27057;51.438;-0.010;2022-11-13T01:29:12;13.20;99.90
41310;DHT22;27057;51.438;-0.010;2022-11-13T01:32:00;13.20;99.90
41310;DHT22;27057;51.438;-0.010;2022-11-13T01:34:46;13.30;99.90
41310;DHT22;27057;51.438;-0.010;2022-11-13T01:37:32;13.20;99.90
41310;DHT22;27057;51.438;-0.010;2022-11-13T01:40:18;13.20;99.90
41310;DHT22;27057;51.438;-0.010;2022-11-13T01:43:27;13.20;99.90
41310;DHT22;27057;51.438;-0.010;2022-11-13T01:46:50;13.20;99.90
41310;DHT22;27057;51.438;-0.010;2022-11-13T01:49:39;13.20;99.90
41310;DHT22;27057;51.438;-0.010;2022-11-13T01:52:28;13.40;99.90
41310;DHT22;27057;51.438;-0.010;2022-11-13T01:55:16;13.20;99.90
41310;DHT22;27057;51.438;-0.010;2022-11-13T01:58:05;13.20;99.90
41310;DHT22;27057;51.438;-0.010;2022-11-13T02:00:52;13.20;99.90
41310;DHT22;27057;51.438;-0.010;2022-11-13T02:03:38;13.20;99.90
41310;DHT22;27057;51.438;-0.010;2022-11-13T02:06:29;13.20;99.90
41310;DHT22;27057;51.438;-0.010;2022-11-13T02:09:17;13.20;99.90
41310;DHT22;27057;51.438;-0.010;2022-11-13T02:12:06;13.30;99.90
41310;DHT22;27057;51.438;-0.010;2022-11-13T02:14:53;13.20;99.90
41310;DHT22;27057;51.438;-0.010;2022-11-13T02:17:44;13.20;99.90
41310;DHT22;27057;51.438;-0.010;2022-11-13T02:20:55;13.20;99.90
41310;DHT22;27057;51.438;-0.010;2022-11-13T02:23:50;13.40;99.90
41310;DHT22;27057;51.438;-0.010;2022-11-13T02:26:37;13.10;99.90
41310;DHT22;27057;51.438;-0.010;2022-11-13T02:29:23;13.20;99.90
41310;DHT22;27057;51.438;-0.010;2022-11-13T02:32:09;13.20;99.90
41310;DHT22;27057;51.438;-0.010;2022-11-13T02:34:54;13.00;99.90
41310;DHT22;27057;51.438;-0.010;2022-11-13T02:37:41;13.20;99.90
41310;DHT22;27057;51.438;-0.010;2022-11-13T02:40:28;13.50;99.90
41310;DHT22;27057;51.438;-0.010;2022-11-13T02:43:13;13.20;99.90
41310;DHT22;27057;51.438;-0.010;2022-11-13T02:45:59;13.10;99.90
41310;DHT22;27057;51.438;-0.010;2022-11-13T02:48:46;13.20;99.90
41310;DHT22;27057;51.438;-0.010;2022-11-13T02:51:31;13.10;99.90
41310;DHT22;27057;51.438;-0.010;2022-11-13T02:54:17;13.10;99.90
41310;DHT22;27057;51.438;-0.010;2022-11-13T02:57:03;13.30;99.90
41310;DHT22;27057;51.438;-0.010;2022-11-13T02:59:49;13.20;99.90
41310;DHT22;27057;51.438;-0.010;2022-11-13T03:02:35;12.80;99.90
41310;DHT22;27057;51.438;-0.010;2022-11-13T03:05:21;13.10;99.90
41310;DHT22;27057;51.438;-0.010;2022-11-13T03:08:07;13.10;99.90
41310;DHT22;27057;51.438;-0.010;2022-11-13T03:10:53;13.10;99.90
41310;DHT22;27057;51.438;-0.010;2022-11-13T03:13:39;13.10;99.90
41310;DHT22;27057;51.438;-0.010;2022-11-13T03:16:26;13.10;99.90
41310;DHT22;27057;51.438;-0.010;2022-11-13T03:19:11;13.10;99.90
41310;DHT22;27057;51.438;-0.010;2022-11-13T03:21:57;13.10;99.90
41310;DHT22;27057;51.438;-0.010;2022-11-13T03:24:43;13.00;99.90
41310;DHT22;27057;51.438;-0.010;2022-11-13T03:27:30;13.10;99.90
41310;DHT22;27057;51.438;-0.010;2022-11-13T03:30:16;13.10;99.90
41310;DHT22;27057;51.438;-0.010;2022-11-13T03:33:02;13.00;99.90
41310;DHT22;27057;51.438;-0.010;2022-11-13T03:35:48;13.20;99.90
41310;DHT22;27057;51.438;-0.010;2022-11-13T03:38:34;13.70;99.90
41310;DHT22;27057;51.438;-0.010;2022-11-13T03:41:21;12.80;99.90
41310;DHT22;27057;51.438;-0.010;2022-11-13T03:44:07;13.10;99.90
41310;DHT22;27057;51.438;-0.010;2022-11-13T03:46:53;13.10;99.90
41310;DHT22;27057;51.438;-0.010;2022-11-13T03:49:39;14.00;99.90
41310;DHT22;27057;51.438;-0.010;2022-11-13T03:52:25;12.80;99.90
41310;DHT22;27057;51.438;-0.010;2022-11-13T03:55:11;13.70;99.90
41310;DHT22;27057;51.438;-0.010;2022-11-13T03:57:57;13.10;99.90
41310;DHT22;27057;51.438;-0.010;2022-11-13T04:00:44;13.10;99.90
41310;DHT22;27057;51.438;-0.010;2022-11-13T04:03:30;13.10;99.90
41310;DHT22;27057;51.438;-0.010;2022-11-13T04:06:16;13.00;99.90
41310;DHT22;27057;51.438;-0.010;2022-11-13T04:09:02;13.00;99.90
41310;DHT22;27057;51.438;-0.010;2022-11-13T04:11:48;13.00;99.90
41310;DHT22;27057;51.438;-0.010;2022-11-13T04:14:34;13.10;99.90
41310;DHT22;27057;51.438;-0.010;2022-11-13T04:17:20;13.00;99.90
41310;DHT22;27057;51.438;-0.010;2022-11-13T04:20:07;13.10;99.90
41310;DHT22;27057;51.438;-0.010;2022-11-13T04:22:54;13.00;99.90
41310;DHT22;27057;51.438;-0.010;2022-11-13T04:25:40;13.30;99.90
41310;DHT22;27057;51.438;-0.010;2022-11-13T04:28:26;13.10;99.90
41310;DHT22;27057;51.438;-0.010;2022-11-13T04:31:12;13.00;99.90
41310;DHT22;27057;51.438;-0.010;2022-11-13T04:33:58;13.10;99.90
41310;DHT22;27057;51.438;-0.010;2022-11-13T04:36:44;13.00;99.90
41310;DHT22;27057;51.438;-0.010;2022-11-13T04:39:30;13.00;99.90
41310;DHT22;27057;51.438;-0.010;2022-11-13T04:42:16;13.00;99.90
41310;DHT22;27057;51.438;-0.010;2022-11-13T04:45:22;13.00;99.90
41310;DHT22;27057;51.438;-0.010;2022-11-13T04:48:08;13.00;99.90
41310;DHT22;27057;51.438;-0.010;2022-11-13T04:50:54;12.90;99.90
41310;DHT22;27057;51.438;-0.010;2022-11-13T04:53:40;12.90;99.90
41310;DHT22;27057;51.438;-0.010;2022-11-13T04:56:26;12.90;99.90
41310;DHT22;27057;51.438;-0.010;2022-11-13T04:59:12;12.90;99.90
41310;DHT22;27057;51.438;-0.010;2022-11-13T05:01:58;12.90;99.90
41310;DHT22;27057;51.438;-0.010;2022-11-13T05:04:44;12.90;99.90
41310;DHT22;27057;51.438;-0.010;2022-11-13T05:07:30;12.90;99.90
41310;DHT22;27057;51.438;-0.010;2022-11-13T05:10:16;12.90;99.90
41310;DHT22;27057;51.438;-0.010;2022-11-13T05:13:02;13.00;99.90
41310;DHT22;27057;51.438;-0.010;2022-11-13T05:15:48;12.80;99.90
41310;DHT22;27057;51.438;-0.010;2022-11-13T05:18:36;12.80;99.90
41310;DHT22;27057;51.438;-0.010;2022-11-13T05:21:23;12.80;99.90
41310;DHT22;27057;51.438;-0.010;2022-11-13T05:24:09;12.80;99.90
41310;DHT22;27057;51.438;-0.010;2022-11-13T05:26:56;12.70;99.90
41310;DHT22;27057;51.438;-0.010;2022-11-13T05:29:42;12.90;99.90
41310;DHT22;27057;51.438;-0.010;2022-11-13T05:32:27;13.00;99.90
41310;DHT22;27057;51.438;-0.010;2022-11-13T05:35:14;12.70;99.90
41310;DHT22;27057;51.438;-0.010;2022-11-13T05:38:00;12.70;99.90
41310;DHT22;27057;51.438;-0.010;2022-11-13T05:40:46;12.70;99.90
41310;DHT22;27057;51.438;-0.010;2022-11-13T05:43:33;13.40;99.90
41310;DHT22;27057;51.438;-0.010;2022-11-13T05:46:22;12.80;99.90
41310;DHT22;27057;51.438;-0.010;2022-11-13T05:49:08;12.90;99.90
41310;DHT22;27057;51.438;-0.010;2022-11-13T05:51:54;12.70;99.90
41310;DHT22;27057;51.438;-0.010;2022-11-13T05:54:40;12.70;99.90
41310;DHT22;27057;51.438;-0.010;2022-11-13T05:57:26;12.70;99.90
41310;DHT22;27057;51.438;-0.010;2022-11-13T06:00:13;12.70;99.90
41310;DHT22;27057;51.438;-0.010;2022-11-13T06:02:59;12.70;99.90
41310;DHT22;27057;51.438;-0.010;2022-11-13T06:05:45;12.00;99.90
41310;DHT22;27057;51.438;-0.010;2022-11-13T06:08:31;12.60;99.90
41310;DHT22;27057;51.438;-0.010;2022-11-13T06:11:20;12.60;99.90
41310;DHT22;27057;51.438;-0.010;2022-11-13T06:14:06;12.60;99.90
41310;DHT22;27057;51.438;-0.010;2022-11-13T06:16:52;12.80;99.90
41310;DHT22;27057;51.438;-0.010;2022-11-13T06:19:38;12.60;99.90
41310;DHT22;27057;51.438;-0.010;2022-11-13T06:22:24;12.60;99.90
41310;DHT22;27057;51.438;-0.010;2022-11-13T06:25:10;12.40;99.90
41310;DHT22;27057;51.438;-0.010;2022-11-13T06:27:55;12.60;99.90
41310;DHT22;27057;51.438;-0.010;2022-11-13T06:30:41;12.70;99.90
41310;DHT22;27057;51.438;-0.010;2022-11-13T06:33:27;12.50;99.90
41310;DHT22;27057;51.438;-0.010;2022-11-13T06:36:18;12.50;99.90
41310;DHT22;27057;51.438;-0.010;2022-11-13T06:39:05;12.50;99.90
41310;DHT22;27057;51.438;-0.010;2022-11-13T06:41:52;12.70;99.90
41310;DHT22;27057;51.438;-0.010;2022-11-13T06:44:38;12.30;99.90
41310;DHT22;27057;51.438;-0.010;2022-11-13T06:47:24;12.30;99.90
41310;DHT22;27057;51.438;-0.010;2022-11-13T06:50:10;12.30;99.90
41310;DHT22;27057;51.438;-0.010;2022-11-13T06:52:56;12.30;99.90
41310;DHT22;27057;51.438;-0.010;2022-11-13T06:55:43;12.30;99.90
41310;DHT22;27057;51.438;-0.010;2022-11-13T06:58:29;12.30;99.90
41310;DHT22;27057;51.438;-0.010;2022-11-13T07:01:18;12.00;99.90
41310;DHT22;27057;51.438;-0.010;2022-11-13T07:04:05;12.30;99.90
41310;DHT22;27057;51.438;-0.010;2022-11-13T07:06:51;12.40;99.90
41310;DHT22;27057;51.438;-0.010;2022-11-13T07:09:37;12.30;99.90
41310;DHT22;27057;51.438;-0.010;2022-11-13T07:12:23;12.20;99.90
41310;DHT22;27057;51.438;-0.010;2022-11-13T07:15:10;12.40;99.90
41310;DHT22;27057;51.438;-0.010;2022-11-13T07:17:59;12.40;99.90
41310;DHT22;27057;51.438;-0.010;2022-11-13T07:20:45;12.20;99.90
41310;DHT22;27057;51.438;-0.010;2022-11-13T07:23:31;12.20;99.90
41310;DHT22;27057;51.438;-0.010;2022-11-13T07:26:18;12.20;99.90
41310;DHT22;27057;51.438;-0.010;2022-11-13T07:29:04;12.10;99.90
41310;DHT22;27057;51.438;-0.010;2022-11-13T07:31:49;13.10;99.90
41310;DHT22;27057;51.438;-0.010;2022-11-13T07:34:35;12.20;99.90
41310;DHT22;27057;51.438;-0.010;2022-11-13T07:37:21;12.10;99.90
41310;DHT22;27057;51.438;-0.010;2022-11-13T07:40:08;12.60;99.90
41310;DHT22;27057;51.438;-0.010;2022-11-13T07:42:58;12.10;99.90
41310;DHT22;27057;51.438;-0.010;2022-11-13T07:45:44;12.10;99.90
41310;DHT22;27057;51.438;-0.010;2022-11-13T07:48:30;12.00;99.90
41310;DHT22;27057;51.438;-0.010;2022-11-13T07:51:17;12.00;99.90
41310;DHT22;27057;51.438;-0.010;2022-11-13T07:54:03;12.00;99.90
41310;DHT22;27057;51.438;-0.010;2022-11-13T07:56:49;12.10;99.90
41310;DHT22;27057;51.438;-0.010;2022-11-13T07:59:35;12.60;99.90
41310;DHT22;27057;51.438;-0.010;2022-11-13T08:02:20;12.10;99.90
41310;DHT22;27057;51.438;-0.010;2022-11-13T08:05:11;12.00;99.90
41310;DHT22;27057;51.438;-0.010;2022-11-13T08:07:57;11.90;99.90
41310;DHT22;27057;51.438;-0.010;2022-11-13T08:10:43;12.10;99.90
41310;DHT22;27057;51.438;-0.010;2022-11-13T08:13:29;12.90;99.90
41310;DHT22;27057;51.438;-0.010;2022-11-13T08:16:15;12.10;99.90
41310;DHT22;27057;51.438;-0.010;2022-11-13T08:19:01;12.10;99.90
41310;DHT22;27057;51.438;-0.010;2022-11-13T08:21:48;12.10;99.90
41310;DHT22;27057;51.438;-0.010;2022-11-13T08:24:33;12.20;99.90
41310;DHT22;27057;51.438;-0.010;2022-11-13T08:27:21;12.10;99.90
41310;DHT22;27057;51.438;-0.010;2022-11-13T08:30:07;12.40;99.90
41310;DHT22;27057;51.438;-0.010;2022-11-13T08:32:53;12.20;99.90
41310;DHT22;27057;51.438;-0.010;2022-11-13T08:35:39;12.20;99.90
41310;DHT22;27057;51.438;-0.010;2022-11-13T08:38:26;12.40;99.90
41310;DHT22;27057;51.438;-0.010;2022-11-13T08:41:12;12.80;99.90
41310;DHT22;27057;51.438;-0.010;2022-11-13T08:43:58;12.00;99.90
41310;DHT22;27057;51.438;-0.010;2022-11-13T08:46:44;12.40;99.90
41310;DHT22;27057;51.438;-0.010;2022-11-13T08:49:30;12.20;99.90
41310;DHT22;27057;51.438;-0.010;2022-11-13T08:55:02;12.40;99.90
41310;DHT22;27057;51.438;-0.010;2022-11-13T08:57:49;12.20;99.90
41310;DHT22;27057;51.438;-0.010;2022-11-13T09:00:35;12.20;99.90
41310;DHT22;27057;51.438;-0.010;2022-11-13T09:03:21;12.20;99.90
41310;DHT22;27057;51.438;-0.010;2022-11-13T09:06:07;12.20;99.90
41310;DHT22;27057;51.438;-0.010;2022-11-13T09:08:53;12.20;99.90
41310;DHT22;27057;51.438;-0.010;2022-11-13T09:11:39;12.10;99.90
41310;DHT22;27057;51.438;-0.010;2022-11-13T09:14:25;12.20;99.90
41310;DHT22;27057;51.438;-0.010;2022-11-13T09:17:12;12.60;99.90
41310;DHT22;27057;51.438;-0.010;2022-11-13T09:19:58;12.30;99.90
41310;DHT22;27057;51.438;-0.010;2022-11-13T09:22:55;12.20;99.90
41310;DHT22;27057;51.438;-0.010;2022-11-13T09:25:42;12.30;99.90
41310;DHT22;27057;51.438;-0.010;2022-11-13T09:28:28;12.30;99.90
41310;DHT22;27057;51.438;-0.010;2022-11-13T09:31:14;12.30;99.90
41310;DHT22;27057;51.438;-0.010;2022-11-13T09:34:01;12.30;99.90
41310;DHT22;27057;51.438;-0.010;2022-11-13T09:36:47;12.30;99.90
41310;DHT22;27057;51.438;-0.010;2022-11-13T09:39:32;12.30;99.90
41310;DHT22;27057;51.438;-0.010;2022-11-13T09:42:22;12.40;99.90
41310;DHT22;27057;51.438;-0.010;2022-11-13T09:45:13;12.40;99.90
41310;DHT22;27057;51.438;-0.010;2022-11-13T09:48:11;12.40;99.90
41310;DHT22;27057;51.438;-0.010;2022-11-13T09:51:10;12.50;99.90
41310;DHT22;27057;51.438;-0.010;2022-11-13T09:53:58;12.50;99.90
41310;DHT22;27057;51.438;-0.010;2022-11-13T09:59:59;12.60;99.90
41310;DHT22;27057;51.438;-0.010;2022-11-13T10:08:57;12.60;99.90
41310;DHT22;27057;51.438;-0.010;2022-11-13T10:12:01;12.70;99.90
41310;DHT22;27057;51.438;-0.010;2022-11-13T10:14:51;12.70;99.90
41310;DHT22;27057;51.438;-0.010;2022-11-13T10:23:25;12.80;99.90
41310;DHT22;27057;51.438;-0.010;2022-11-13T10:26:16;12.80;99.90
41310;DHT22;27057;51.438;-0.010;2022-11-13T10:29:14;12.80;99.90
41310;DHT22;27057;51.438;-0.010;2022-11-13T10:32:22;12.80;99.90
41310;DHT22;27057;51.438;-0.010;2022-11-13T10:41:12;13.00;99.90
41310;DHT22;27057;51.438;-0.010;2022-11-13T10:44:05;13.00;99.90
41310;DHT22;27057;51.438;-0.010;2022-11-13T10:47:13;13.00;99.90
41310;DHT22;27057;51.438;-0.010;2022-11-13T10:50:20;13.00;99.90
41310;DHT22;27057;51.438;-0.010;2022-11-13T10:53:15;13.00;99.90
41310;DHT22;27057;51.438;-0.010;2022-11-13T10:56:33;12.90;99.90
41310;DHT22;27057;51.438;-0.010;2022-11-13T10:59:19;13.10;99.90
41310;DHT22;27057;51.438;-0.010;2022-11-13T11:02:25;13.20;99.90
41310;DHT22;27057;51.438;-0.010;2022-11-13T11:05:18;13.20;99.90
41310;DHT22;27057;51.438;-0.010;2022-11-13T11:08:08;13.10;99.90
41310;DHT22;27057;51.438;-0.010;2022-11-13T11:11:06;13.30;99.90
41310;DHT22;27057;51.438;-0.010;2022-11-13T11:14:17;13.30;99.90
41310;DHT22;27057;51.438;-0.010;2022-11-13T11:17:04;13.30;99.90
41310;DHT22;27057;51.438;-0.010;2022-11-13T11:23:00;13.40;99.90
41310;DHT22;27057;51.438;-0.010;2022-11-13T11:25:59;13.50;99.90
41310;DHT22;27057;51.438;-0.010;2022-11-13T11:32:16;13.50;99.90
41310;DHT22;27057;51.438;-0.010;2022-11-13T11:35:18;13.60;99.90
41310;DHT22;27057;51.438;-0.010;2022-11-13T11:38:23;13.60;99.90
41310;DHT22;27057;51.438;-0.010;2022-11-13T11:41:14;13.70;99.90
41310;DHT22;27057;51.438;-0.010;2022-11-13T11:44:13;13.80;99.90
41310;DHT22;27057;51.438;-0.010;2022-11-13T11:47:00;13.70;99.90
41310;DHT22;27057;51.438;-0.010;2022-11-13T11:49:46;13.60;99.90
41310;DHT22;27057;51.438;-0.010;2022-11-13T12:08:21;13.80;99.90
41310;DHT22;27057;51.438;-0.010;2022-11-13T12:20:35;13.90;99.90
41310;DHT22;27057;51.438;-0.010;2022-11-13T12:23:34;13.90;99.90
41310;DHT22;27057;51.438;-0.010;2022-11-13T12:26:50;13.90;99.90
41310;DHT22;27057;51.438;-0.010;2022-11-13T12:32:36;14.10;99.90
41310;DHT22;27057;51.438;-0.010;2022-11-13T12:35:25;14.10;99.90
41310;DHT22;27057;51.438;-0.010;2022-11-13T12:38:30;14.10;99.90
41310;DHT22;27057;51.438;-0.010;2022-11-13T12:44:25;14.20;99.90
41310;DHT22;27057;51.438;-0.010;2022-11-13T12:47:12;14.40;99.90
41310;DHT22;27057;51.438;-0.010;2022-11-13T12:50:26;14.20;99.90
41310;DHT22;27057;51.438;-0.010;2022-11-13T12:53:24;14.20;99.90
41310;DHT22;27057;51.438;-0.010;2022-11-13T12:56:28;14.20;99.90
41310;DHT22;27057;51.438;-0.010;2022-11-13T13:02:26;14.50;99.90
41310;DHT22;27057;51.438;-0.010;2022-11-13T13:08:23;14.70;99.90
41310;DHT22;27057;51.438;-0.010;2022-11-13T13:17:23;15.60;99.90
41310;DHT22;27057;51.438;-0.010;2022-11-13T13:22:59;16.30;99.90
41310;DHT22;27057;51.438;-0.010;2022-11-13T13:25:48;16.40;99.90
41310;DHT22;27057;51.438;-0.010;2022-11-13T13:28:38;16.50;99.90
41310;DHT22;27057;51.438;-0.010;2022-11-13T13:35:14;16.50;99.90
41310;DHT22;27057;51.438;-0.010;2022-11-13T13:38:15;16.70;99.90
41310;DHT22;27057;51.438;-0.010;2022-11-13T13:41:38;16.90;99.90
41310;DHT22;27057;51.438;-0.010;2022-11-13T13:47:49;18.20;99.90
41310;DHT22;27057;51.438;-0.010;2022-11-13T13:50:43;18.80;99.90
41310;DHT22;27057;51.438;-0.010;2022-11-13T13:53:32;19.40;99.90
41310;DHT22;27057;51.438;-0.010;2022-11-13T13:56:19;19.90;99.90
41310;DHT22;27057;51.438;-0.010;2022-11-13T13:59:21;20.40;99.90
41310;DHT22;27057;51.438;-0.010;2022-11-13T14:02:16;20.80;99.90
41310;DHT22;27057;51.438;-0.010;2022-11-13T14:05:37;21.30;99.90
41310;DHT22;27057;51.438;-0.010;2022-11-13T14:08:23;21.60;99.90
41310;DHT22;27057;51.438;-0.010;2022-11-13T14:11:21;21.70;99.90
41310;DHT22;27057;51.438;-0.010;2022-11-13T14:14:19;21.80;99.90
41310;DHT22;27057;51.438;-0.010;2022-11-13T14:17:09;21.80;99.90
41310;DHT22;27057;51.438;-0.010;2022-11-13T14:19:56;21.90;99.90
41310;DHT22;27057;51.438;-0.010;2022-11-13T14:22:48;21.90;99.90
41310;DHT22;27057;51.438;-0.010;2022-11-13T14:25:42;21.60;99.90
41310;DHT22;27057;51.438;-0.010;2022-11-13T14:28:30;21.10;99.90
41310;DHT22;27057;51.438;-0.010;2022-11-13T14:31:17;20.70;99.90
41310;DHT22;27057;51.438;-0.010;2022-11-13T14:34:09;20.30;99.90
41310;DHT22;27057;51.438;-0.010;2022-11-13T14:37:09;19.70;99.90
41310;DHT22;27057;51.438;-0.010;2022-11-13T14:40:02;19.20;99.90
41310;DHT22;27057;51.438;-0.010;2022-11-13T14:42:52;18.40;99.90
41310;DHT22;27057;51.438;-0.010;2022-11-13T14:45:39;17.80;99.90
41310;DHT22;27057;51.438;-0.010;2022-11-13T14:48:28;17.10;99.90
41310;DHT22;27057;51.438;-0.010;2022-11-13T14:51:26;16.60;99.90
41310;DHT22;27057;51.438;-0.010;2022-11-13T14:57:46;15.80;99.90
41310;DHT22;27057;51.438;-0.010;2022-11-13T15:00:35;15.50;99.90
41310;DHT22;27057;51.438;-0.010;2022-11-13T15:03:22;15.20;99.90
41310;DHT22;27057;51.438;-0.010;2022-11-13T15:08:58;15.10;99.90
41310;DHT22;27057;51.438;-0.010;2022-11-13T15:11:45;15.10;99.90
41310;DHT22;27057;51.438;-0.010;2022-11-13T15:14:32;15.00;99.90
41310;DHT22;27057;51.438;-0.010;2022-11-13T15:17:18;14.90;99.90
41310;DHT22;27057;51.438;-0.010;2022-11-13T15:20:05;14.90;99.90
41310;DHT22;27057;51.438;-0.010;2022-11-13T15:22:56;14.80;99.90
41310;DHT22;27057;51.438;-0.010;2022-11-13T15:25:42;14.70;99.90
41310;DHT22;27057;51.438;-0.010;2022-11-13T15:28:28;14.70;99.90
41310;DHT22;27057;51.438;-0.010;2022-11-13T15:34:04;14.50;99.90
41310;DHT22;27057;51.438;-0.010;2022-11-13T15:36:50;14.50;99.90
41310;DHT22;27057;51.438;-0.010;2022-11-13T15:39:36;14.40;99.90
41310;DHT22;27057;51.438;-0.010;2022-11-13T15:42:28;14.40;99.90
41310;DHT22;27057;51.438;-0.010;2022-11-13T15:45:15;14.40;99.90
41310;DHT22;27057;51.438;-0.010;2022-11-13T15:48:01;14.40;99.90
41310;DHT22;27057;51.438;-0.010;2022-11-13T15:50:47;14.70;99.90
41310;DHT22;27057;51.438;-0.010;2022-11-13T15:53:32;14.40;99.90
41310;DHT22;27057;51.438;-0.010;2022-11-13T15:56:19;14.40;99.90
41310;DHT22;27057;51.438;-0.010;2022-11-13T15:59:04;14.40;99.90
41310;DHT22;27057;51.438;-0.010;2022-11-13T16:01:50;14.40;99.90
41310;DHT22;27057;51.438;-0.010;2022-11-13T16:04:43;14.30;99.90
41310;DHT22;27057;51.438;-0.010;2022-11-13T16:07:41;14.30;99.90
41310;DHT22;27057;51.438;-0.010;2022-11-13T16:10:27;14.30;99.90
41310;DHT22;27057;51.438;-0.010;2022-11-13T16:13:13;14.30;99.90
41310;DHT22;27057;51.438;-0.010;2022-11-13T16:15:59;14.20;99.90
41310;DHT22;27057;51.438;-0.010;2022-11-13T16:18:45;14.20;99.90
41310;DHT22;27057;51.438;-0.010;2022-11-13T16:21:31;14.20;99.90
41310;DHT22;27057;51.438;-0.010;2022-11-13T16:24:17;14.20;99.90
41310;DHT22;27057;51.438;-0.010;2022-11-13T16:27:17;14.10;99.90
41310;DHT22;27057;51.438;-0.010;2022-11-13T16:30:08;14.00;99.90
41310;DHT22;27057;51.438;-0.010;2022-11-13T16:32:54;14.00;99.90
41310;DHT22;27057;51.438;-0.010;2022-11-13T16:35:40;14.00;99.90
41310;DHT22;27057;51.438;-0.010;2022-11-13T16:38:26;14.00;99.90
41310;DHT22;27057;51.438;-0.010;2022-11-13T16:41:13;14.00;99.90
41310;DHT22;27057;51.438;-0.010;2022-11-13T16:44:01;13.90;99.90
41310;DHT22;27057;51.438;-0.010;2022-11-13T16:46:47;13.90;99.90
41310;DHT22;27057;51.438;-0.010;2022-11-13T16:49:34;13.90;99.90
41310;DHT22;27057;51.438;-0.010;2022-11-13T16:52:20;13.80;99.90
41310;DHT22;27057;51.438;-0.010;2022-11-13T16:55:06;13.80;99.90
41310;DHT22;27057;51.438;-0.010;2022-11-13T17:00:39;13.70;99.90
41310;DHT22;27057;51.438;-0.010;2022-11-13T17:03:24;13.70;99.90
41310;DHT22;27057;51.438;-0.010;2022-11-13T17:06:25;13.70;99.90
41310;DHT22;27057;51.438;-0.010;2022-11-13T17:09:12;13.60;99.90
41310;DHT22;27057;51.438;-0.010;2022-11-13T17:11:58;13.60;99.90
41310;DHT22;27057;51.438;-0.010;2022-11-13T17:14:45;13.60;99.90
41310;DHT22;27057;51.438;-0.010;2022-11-13T17:17:31;13.60;99.90
41310;DHT22;27057;51.438;-0.010;2022-11-13T17:20:17;13.60;99.90
41310;DHT22;27057;51.438;-0.010;2022-11-13T17:23:03;13.60;99.90
41310;DHT22;27057;51.438;-0.010;2022-11-13T17:25:49;13.80;99.90
41310;DHT22;27057;51.438;-0.010;2022-11-13T17:28:35;13.60;99.90
41310;DHT22;27057;51.438;-0.010;2022-11-13T17:31:21;13.60;99.90
41310;DHT22;27057;51.438;-0.010;2022-11-13T17:34:07;13.60;99.90
41310;DHT22;27057;51.438;-0.010;2022-11-13T17:36:53;13.50;99.90
41310;DHT22;27057;51.438;-0.010;2022-11-13T17:39:39;13.50;99.90
41310;DHT22;27057;51.438;-0.010;2022-11-13T17:42:25;13.50;99.90
41310;DHT22;27057;51.438;-0.010;2022-11-13T17:45:13;13.50;99.90
41310;DHT22;27057;51.438;-0.010;2022-11-13T17:47:59;13.50;99.90
41310;DHT22;27057;51.438;-0.010;2022-11-13T17:50:54;13.50;99.90
41310;DHT22;27057;51.438;-0.010;2022-11-13T17:53:41;13.50;99.90
41310;DHT22;27057;51.438;-0.010;2022-11-13T17:56:27;13.70;99.90
41310;DHT22;27057;51.438;-0.010;2022-11-13T17:59:13;13.40;99.90
41310;DHT22;27057;51.438;-0.010;2022-11-13T18:01:59;13.40;99.90
41310;DHT22;27057;51.438;-0.010;2022-11-13T18:04:45;13.40;99.90
41310;DHT22;27057;51.438;-0.010;2022-11-13T18:07:31;13.90;99.90
41310;DHT22;27057;51.438;-0.010;2022-11-13T18:10:17;13.30;99.90
41310;DHT22;27057;51.438;-0.010;2022-11-13T18:13:03;13.30;99.90
41310;DHT22;27057;51.438;-0.010;2022-11-13T18:15:49;13.30;99.90
41310;DHT22;27057;51.438;-0.010;2022-11-13T18:18:35;13.30;99.90
41310;DHT22;27057;51.438;-0.010;2022-11-13T18:21:24;13.30;99.90
41310;DHT22;27057;51.438;-0.010;2022-11-13T18:24:15;13.80;99.90
41310;DHT22;27057;51.438;-0.010;2022-11-13T18:27:02;13.30;99.90
41310;DHT22;27057;51.438;-0.010;2022-11-13T18:29:50;13.30;99.90
41310;DHT22;27057;51.438;-0.010;2022-11-13T18:32:36;13.30;99.90
41310;DHT22;27057;51.438;-0.010;2022-11-13T18:35:22;13.30;99.90
41310;DHT22;27057;51.438;-0.010;2022-11-13T18:38:08;13.20;99.90
41310;DHT22;27057;51.438;-0.010;2022-11-13T18:43:48;13.30;99.90
41310;DHT22;27057;51.438;-0.010;2022-11-13T18:46:35;14.20;99.90
41310;DHT22;27057;51.438;-0.010;2022-11-13T18:49:21;13.20;99.90
41310;DHT22;27057;51.438;-0.010;2022-11-13T18:52:07;14.00;99.90
41310;DHT22;27057;51.438;-0.010;2022-11-13T18:54:53;13.10;99.90
41310;DHT22;27057;51.438;-0.010;2022-11-13T18:57:39;13.00;99.90
41310;DHT22;27057;51.438;-0.010;2022-11-13T19:00:25;13.00;99.90
41310;DHT22;27057;51.438;-0.010;2022-11-13T19:03:11;13.40;99.90
41310;DHT22;27057;51.438;-0.010;2022-11-13T19:05:57;12.90;99.90
41310;DHT22;27057;51.438;-0.010;2022-11-13T19:08:43;12.90;99.90